sensor_id;sensor_type;location;lat;lon;timestamp;P1;durP1;ratioP1;P2;durP2;ratioP2
34070;SDS011;77342;53.012;6.556;2024-03-23T00:54:50;31.90;;;6.10;;
34070;SDS011;77342;53.012;6.556;2024-03-23T00:57:17;29.53;;;5.23;;
34070;SDS011;77342;53.012;6.556;2024-03-23T00:59:43;25.93;;;5.67;;
34070;SDS011;77342;53.012;6.556;2024-03-23T01:02:09;30.57;;;4.90;;
34070;SDS011;77342;53.012;6.556;2024-03-23T01:04:35;28.57;;;5.43;;
34070;SDS011;77342;53.012;6.556;2024-03-23T01:07:02;41.33;;;5.80;;
34070;SDS011;77342;53.012;6.556;2024-03-23T01:09:27;33.77;;;5.43;;
34070;SDS011;77342;53.012;6.556;2024-03-23T01:11:54;26.57;;;4.90;;
34070;SDS011;77342;53.012;6.556;2024-03-23T01:14:20;30.33;;;5.23;;
34070;SDS011;77342;53.012;6.556;2024-03-23T01:16:49;27.93;;;5.43;;
34070;SDS011;77342;53.012;6.556;2024-03-23T01:19:15;28.77;;;5.33;;
34070;SDS011;77342;53.012;6.556;2024-03-23T01:21:41;27.77;;;5.00;;
34070;SDS011;77342;53.012;6.556;2024-03-23T01:24:08;36.40;;;5.10;;
34070;SDS011;77342;53.012;6.556;2024-03-23T01:26:35;38.00;;;5.93;;
34070;SDS011;77342;53.012;6.556;2024-03-23T01:29:02;27.63;;;5.17;;
34070;SDS011;77342;53.012;6.556;2024-03-23T01:31:28;34.67;;;5.57;;
34070;SDS011;77342;53.012;6.556;2024-03-23T01:33:54;28.27;;;5.50;;
34070;SDS011;77342;53.012;6.556;2024-03-23T01:36:21;28.33;;;5.47;;
34070;SDS011;77342;53.012;6.556;2024-03-23T01:38:46;26.50;;;4.97;;
34070;SDS011;77342;53.012;6.556;2024-03-23T01:41:14;37.83;;;5.43;;
34070;SDS011;77342;53.012;6.556;2024-03-23T01:43:40;44.80;;;6.20;;
34070;SDS011;77342;53.012;6.556;2024-03-23T01:46:07;37.53;;;6.40;;
34070;SDS011;77342;53.012;6.556;2024-03-23T01:48:34;26.57;;;4.87;;
34070;SDS011;77342;53.012;6.556;2024-03-23T01:50:59;28.03;;;5.10;;
34070;SDS011;77342;53.012;6.556;2024-03-23T01:53:26;28.80;;;5.10;;
34070;SDS011;77342;53.012;6.556;2024-03-23T01:55:51;29.83;;;5.20;;
34070;SDS011;77342;53.012;6.556;2024-03-23T01:58:18;33.57;;;5.40;;
34070;SDS011;77342;53.012;6.556;2024-03-23T02:00:44;23.43;;;5.20;;
34070;SDS011;77342;53.012;6.556;2024-03-23T02:03:23;27.37;;;5.03;;
34070;SDS011;77342;53.012;6.556;2024-03-23T02:05:53;30.87;;;5.70;;
34070;SDS011;77342;53.012;6.556;2024-03-23T02:08:21;25.53;;;5.00;;
34070;SDS011;77342;53.012;6.556;2024-03-23T02:10:48;31.20;;;5.73;;
34070;SDS011;77342;53.012;6.556;2024-03-23T02:13:15;25.77;;;5.20;;
34070;SDS011;77342;53.012;6.556;2024-03-23T02:15:41;37.13;;;5.20;;
34070;SDS011;77342;53.012;6.556;2024-03-23T02:18:08;26.93;;;5.30;;
34070;SDS011;77342;53.012;6.556;2024-03-23T02:20:34;30.70;;;6.03;;
34070;SDS011;77342;53.012;6.556;2024-03-23T02:23:02;31.30;;;5.47;;
34070;SDS011;77342;53.012;6.556;2024-03-23T02:25:28;25.73;;;5.50;;
34070;SDS011;77342;53.012;6.556;2024-03-23T02:27:54;26.03;;;5.97;;
34070;SDS011;77342;53.012;6.556;2024-03-23T02:30:20;24.20;;;5.10;;
34070;SDS011;77342;53.012;6.556;2024-03-23T02:32:47;27.13;;;5.00;;
34070;SDS011;77342;53.012;6.556;2024-03-23T02:35:12;32.93;;;5.47;;
34070;SDS011;77342;53.012;6.556;2024-03-23T02:37:39;33.30;;;5.63;;
34070;SDS011;77342;53.012;6.556;2024-03-23T02:40:05;31.83;;;5.07;;
34070;SDS011;77342;53.012;6.556;2024-03-23T02:42:32;29.50;;;5.20;;
34070;SDS011;77342;53.012;6.556;2024-03-23T02:44:58;32.93;;;5.70;;
34070;SDS011;77342;53.012;6.556;2024-03-23T02:47:24;31.53;;;5.60;;
34070;SDS011;77342;53.012;6.556;2024-03-23T02:49:51;25.57;;;5.83;;
34070;SDS011;77342;53.012;6.556;2024-03-23T02:52:16;29.20;;;5.40;;
34070;SDS011;77342;53.012;6.556;2024-03-23T02:54:43;34.93;;;5.70;;
34070;SDS011;77342;53.012;6.556;2024-03-23T02:57:10;25.53;;;5.47;;
34070;SDS011;77342;53.012;6.556;2024-03-23T02:59:37;28.27;;;5.57;;
34070;SDS011;77342;53.012;6.556;2024-03-23T03:02:03;30.70;;;5.33;;
34070;SDS011;77342;53.012;6.556;2024-03-23T03:04:31;25.93;;;5.60;;
34070;SDS011;77342;53.012;6.556;2024-03-23T03:06:56;31.17;;;5.40;;
34070;SDS011;77342;53.012;6.556;2024-03-23T03:09:23;25.37;;;5.53;;
34070;SDS011;77342;53.012;6.556;2024-03-23T03:11:49;17.73;;;4.70;;
34070;SDS011;77342;53.012;6.556;2024-03-23T03:14:16;23.37;;;5.30;;
34070;SDS011;77342;53.012;6.556;2024-03-23T03:16:42;23.57;;;5.47;;
34070;SDS011;77342;53.012;6.556;2024-03-23T03:19:09;22.00;;;5.20;;
34070;SDS011;77342;53.012;6.556;2024-03-23T03:21:35;30.67;;;5.10;;
34070;SDS011;77342;53.012;6.556;2024-03-23T03:24:02;32.90;;;5.63;;
34070;SDS011;77342;53.012;6.556;2024-03-23T03:26:29;25.03;;;4.50;;
34070;SDS011;77342;53.012;6.556;2024-03-23T03:28:56;36.43;;;5.87;;
34070;SDS011;77342;53.012;6.556;2024-03-23T03:31:22;28.80;;;5.10;;
34070;SDS011;77342;53.012;6.556;2024-03-23T03:33:49;27.27;;;5.00;;
34070;SDS011;77342;53.012;6.556;2024-03-23T03:36:16;26.33;;;4.93;;
34070;SDS011;77342;53.012;6.556;2024-03-23T03:38:43;21.50;;;5.70;;
34070;SDS011;77342;53.012;6.556;2024-03-23T03:41:09;29.00;;;4.97;;
34070;SDS011;77342;53.012;6.556;2024-03-23T03:43:35;23.23;;;4.40;;
34070;SDS011;77342;53.012;6.556;2024-03-23T03:46:01;23.27;;;5.23;;
34070;SDS011;77342;53.012;6.556;2024-03-23T03:48:29;24.63;;;4.83;;
34070;SDS011;77342;53.012;6.556;2024-03-23T03:50:55;27.73;;;4.70;;
34070;SDS011;77342;53.012;6.556;2024-03-23T03:53:21;22.97;;;4.43;;
34070;SDS011;77342;53.012;6.556;2024-03-23T03:55:47;27.20;;;5.10;;
34070;SDS011;77342;53.012;6.556;2024-03-23T03:58:13;27.70;;;4.70;;
34070;SDS011;77342;53.012;6.556;2024-03-23T04:00:39;20.63;;;4.60;;
34070;SDS011;77342;53.012;6.556;2024-03-23T04:03:05;23.00;;;5.40;;
34070;SDS011;77342;53.012;6.556;2024-03-23T04:05:31;25.87;;;5.37;;
34070;SDS011;77342;53.012;6.556;2024-03-23T04:07:59;25.50;;;5.27;;
34070;SDS011;77342;53.012;6.556;2024-03-23T04:10:24;24.77;;;4.73;;
34070;SDS011;77342;53.012;6.556;2024-03-23T04:12:52;31.30;;;5.10;;
34070;SDS011;77342;53.012;6.556;2024-03-23T04:15:20;24.37;;;5.10;;
34070;SDS011;77342;53.012;6.556;2024-03-23T04:17:47;23.70;;;4.80;;
34070;SDS011;77342;53.012;6.556;2024-03-23T04:20:13;23.80;;;4.80;;
34070;SDS011;77342;53.012;6.556;2024-03-23T04:22:42;26.47;;;5.40;;
34070;SDS011;77342;53.012;6.556;2024-03-23T04:25:08;30.07;;;5.10;;
34070;SDS011;77342;53.012;6.556;2024-03-23T04:27:38;29.70;;;5.87;;
34070;SDS011;77342;53.012;6.556;2024-03-23T04:30:06;26.97;;;5.17;;
34070;SDS011;77342;53.012;6.556;2024-03-23T04:32:36;21.47;;;4.83;;
34070;SDS011;77342;53.012;6.556;2024-03-23T04:35:02;27.87;;;5.00;;
34070;SDS011;77342;53.012;6.556;2024-03-23T04:37:36;24.07;;;4.93;;
34070;SDS011;77342;53.012;6.556;2024-03-23T04:40:09;22.17;;;5.00;;
34070;SDS011;77342;53.012;6.556;2024-03-23T04:42:44;32.57;;;5.03;;
34070;SDS011;77342;53.012;6.556;2024-03-23T04:45:10;24.63;;;4.97;;
34070;SDS011;77342;53.012;6.556;2024-03-23T04:47:37;23.87;;;5.07;;
34070;SDS011;77342;53.012;6.556;2024-03-23T04:50:04;22.43;;;4.70;;
34070;SDS011;77342;53.012;6.556;2024-03-23T04:52:30;25.77;;;4.63;;
34070;SDS011;77342;53.012;6.556;2024-03-23T04:54:57;22.77;;;4.37;;
34070;SDS011;77342;53.012;6.556;2024-03-23T04:57:23;22.47;;;4.33;;
34070;SDS011;77342;53.012;6.556;2024-03-23T04:59:50;23.83;;;4.53;;
34070;SDS011;77342;53.012;6.556;2024-03-23T05:02:16;28.37;;;5.10;;
34070;SDS011;77342;53.012;6.556;2024-03-23T05:04:43;27.50;;;5.00;;
34070;SDS011;77342;53.012;6.556;2024-03-23T05:07:10;22.07;;;4.40;;
34070;SDS011;77342;53.012;6.556;2024-03-23T05:09:36;21.60;;;4.43;;
34070;SDS011;77342;53.012;6.556;2024-03-23T05:12:02;24.83;;;4.63;;
34070;SDS011;77342;53.012;6.556;2024-03-23T05:14:29;20.93;;;4.80;;
34070;SDS011;77342;53.012;6.556;2024-03-23T05:16:55;19.17;;;4.13;;
34070;SDS011;77342;53.012;6.556;2024-03-23T05:19:21;24.50;;;4.83;;
34070;SDS011;77342;53.012;6.556;2024-03-23T05:21:48;29.00;;;4.33;;
34070;SDS011;77342;53.012;6.556;2024-03-23T05:24:15;24.80;;;4.33;;
34070;SDS011;77342;53.012;6.556;2024-03-23T05:26:41;22.87;;;4.33;;
34070;SDS011;77342;53.012;6.556;2024-03-23T05:29:07;28.03;;;4.77;;
34070;SDS011;77342;53.012;6.556;2024-03-23T05:31:36;23.63;;;4.10;;
34070;SDS011;77342;53.012;6.556;2024-03-23T05:34:01;23.90;;;4.37;;
34070;SDS011;77342;53.012;6.556;2024-03-23T05:36:29;20.27;;;4.00;;
34070;SDS011;77342;53.012;6.556;2024-03-23T05:38:55;21.33;;;3.93;;
34070;SDS011;77342;53.012;6.556;2024-03-23T05:41:22;20.37;;;3.80;;
34070;SDS011;77342;53.012;6.556;2024-03-23T05:43:49;23.73;;;3.43;;
34070;SDS011;77342;53.012;6.556;2024-03-23T05:46:16;23.60;;;3.57;;
34070;SDS011;77342;53.012;6.556;2024-03-23T05:48:43;17.60;;;3.73;;
34070;SDS011;77342;53.012;6.556;2024-03-23T05:51:09;24.90;;;3.90;;
34070;SDS011;77342;53.012;6.556;2024-03-23T05:53:37;27.33;;;3.90;;
34070;SDS011;77342;53.012;6.556;2024-03-23T05:56:05;15.87;;;3.77;;
34070;SDS011;77342;53.012;6.556;2024-03-23T05:58:31;20.60;;;4.33;;
34070;SDS011;77342;53.012;6.556;2024-03-23T06:00:58;18.97;;;3.63;;
34070;SDS011;77342;53.012;6.556;2024-03-23T06:03:28;21.17;;;3.50;;
34070;SDS011;77342;53.012;6.556;2024-03-23T06:05:55;20.07;;;3.53;;
34070;SDS011;77342;53.012;6.556;2024-03-23T06:08:21;17.40;;;3.80;;
34070;SDS011;77342;53.012;6.556;2024-03-23T06:10:49;21.63;;;3.77;;
34070;SDS011;77342;53.012;6.556;2024-03-23T06:13:16;25.57;;;4.30;;
34070;SDS011;77342;53.012;6.556;2024-03-23T06:15:43;24.17;;;3.70;;
34070;SDS011;77342;53.012;6.556;2024-03-23T06:18:10;21.47;;;3.47;;
34070;SDS011;77342;53.012;6.556;2024-03-23T06:20:37;22.80;;;3.60;;
34070;SDS011;77342;53.012;6.556;2024-03-23T06:23:04;25.27;;;3.67;;
34070;SDS011;77342;53.012;6.556;2024-03-23T06:25:30;19.83;;;3.83;;
34070;SDS011;77342;53.012;6.556;2024-03-23T06:27:56;16.10;;;3.30;;
34070;SDS011;77342;53.012;6.556;2024-03-23T06:30:24;21.13;;;3.47;;
34070;SDS011;77342;53.012;6.556;2024-03-23T06:32:50;18.80;;;3.20;;
34070;SDS011;77342;53.012;6.556;2024-03-23T06:35:16;15.17;;;2.97;;
34070;SDS011;77342;53.012;6.556;2024-03-23T06:37:42;20.93;;;3.60;;
34070;SDS011;77342;53.012;6.556;2024-03-23T06:40:09;22.37;;;3.70;;
34070;SDS011;77342;53.012;6.556;2024-03-23T06:42:38;16.97;;;3.03;;
34070;SDS011;77342;53.012;6.556;2024-03-23T06:45:05;21.50;;;3.67;;
34070;SDS011;77342;53.012;6.556;2024-03-23T06:47:32;25.17;;;3.07;;
34070;SDS011;77342;53.012;6.556;2024-03-23T06:49:59;19.93;;;3.40;;
34070;SDS011;77342;53.012;6.556;2024-03-23T06:52:26;14.43;;;3.00;;
34070;SDS011;77342;53.012;6.556;2024-03-23T06:54:53;18.63;;;3.10;;
34070;SDS011;77342;53.012;6.556;2024-03-23T06:57:25;14.77;;;2.93;;
34070;SDS011;77342;53.012;6.556;2024-03-23T06:59:52;13.10;;;2.70;;
34070;SDS011;77342;53.012;6.556;2024-03-23T07:02:18;14.87;;;3.00;;
34070;SDS011;77342;53.012;6.556;2024-03-23T07:04:44;16.07;;;3.53;;
34070;SDS011;77342;53.012;6.556;2024-03-23T07:07:10;12.97;;;2.53;;
34070;SDS011;77342;53.012;6.556;2024-03-23T07:09:36;20.43;;;3.17;;
34070;SDS011;77342;53.012;6.556;2024-03-23T07:12:03;16.97;;;3.03;;
34070;SDS011;77342;53.012;6.556;2024-03-23T07:14:29;14.57;;;3.10;;
34070;SDS011;77342;53.012;6.556;2024-03-23T07:16:55;16.10;;;3.50;;
34070;SDS011;77342;53.012;6.556;2024-03-23T07:19:22;19.17;;;3.10;;
34070;SDS011;77342;53.012;6.556;2024-03-23T07:21:48;14.00;;;2.83;;
34070;SDS011;77342;53.012;6.556;2024-03-23T07:24:15;15.33;;;2.93;;
34070;SDS011;77342;53.012;6.556;2024-03-23T07:26:41;13.00;;;2.90;;
34070;SDS011;77342;53.012;6.556;2024-03-23T07:29:07;10.83;;;2.90;;
34070;SDS011;77342;53.012;6.556;2024-03-23T07:31:33;11.67;;;2.80;;
34070;SDS011;77342;53.012;6.556;2024-03-23T07:33:59;13.97;;;3.17;;
34070;SDS011;77342;53.012;6.556;2024-03-23T07:36:25;15.13;;;3.17;;
34070;SDS011;77342;53.012;6.556;2024-03-23T07:38:52;13.67;;;3.10;;
34070;SDS011;77342;53.012;6.556;2024-03-23T07:41:19;11.67;;;2.90;;
34070;SDS011;77342;53.012;6.556;2024-03-23T07:43:47;16.67;;;3.30;;
34070;SDS011;77342;53.012;6.556;2024-03-23T07:46:14;12.70;;;2.70;;
34070;SDS011;77342;53.012;6.556;2024-03-23T07:48:41;9.37;;;2.93;;
34070;SDS011;77342;53.012;6.556;2024-03-23T07:51:17;11.47;;;2.40;;
34070;SDS011;77342;53.012;6.556;2024-03-23T07:53:48;8.30;;;2.30;;
34070;SDS011;77342;53.012;6.556;2024-03-23T07:56:14;11.40;;;2.50;;
34070;SDS011;77342;53.012;6.556;2024-03-23T07:58:43;9.40;;;2.23;;
34070;SDS011;77342;53.012;6.556;2024-03-23T08:01:09;9.80;;;2.83;;
34070;SDS011;77342;53.012;6.556;2024-03-23T08:03:37;10.27;;;2.43;;
34070;SDS011;77342;53.012;6.556;2024-03-23T08:06:22;10.50;;;2.33;;
34070;SDS011;77342;53.012;6.556;2024-03-23T08:08:50;11.90;;;2.30;;
34070;SDS011;77342;53.012;6.556;2024-03-23T08:11:27;9.47;;;1.90;;
34070;SDS011;77342;53.012;6.556;2024-03-23T08:13:55;10.20;;;2.23;;
34070;SDS011;77342;53.012;6.556;2024-03-23T08:16:21;4.97;;;1.77;;
34070;SDS011;77342;53.012;6.556;2024-03-23T08:18:51;10.70;;;2.03;;
34070;SDS011;77342;53.012;6.556;2024-03-23T08:21:17;6.97;;;1.60;;
34070;SDS011;77342;53.012;6.556;2024-03-23T08:23:44;9.00;;;1.80;;
34070;SDS011;77342;53.012;6.556;2024-03-23T08:26:10;8.77;;;2.00;;
34070;SDS011;77342;53.012;6.556;2024-03-23T08:28:38;10.43;;;2.00;;
34070;SDS011;77342;53.012;6.556;2024-03-23T08:31:06;8.47;;;1.90;;
34070;SDS011;77342;53.012;6.556;2024-03-23T08:33:34;7.43;;;2.00;;
34070;SDS011;77342;53.012;6.556;2024-03-23T08:36:00;11.20;;;2.10;;
34070;SDS011;77342;53.012;6.556;2024-03-23T08:38:29;6.97;;;2.10;;
34070;SDS011;77342;53.012;6.556;2024-03-23T08:40:58;8.03;;;2.40;;
34070;SDS011;77342;53.012;6.556;2024-03-23T08:43:26;6.50;;;2.00;;
34070;SDS011;77342;53.012;6.556;2024-03-23T08:45:52;9.93;;;1.98;;
34070;SDS011;77342;53.012;6.556;2024-03-23T08:48:19;6.95;;;1.98;;
34070;SDS011;77342;53.012;6.556;2024-03-23T08:50:46;11.32;;;2.28;;
34070;SDS011;77342;53.012;6.556;2024-03-23T08:53:13;9.82;;;2.20;;
34070;SDS011;77342;53.012;6.556;2024-03-23T08:55:39;13.23;;;2.15;;
34070;SDS011;77342;53.012;6.556;2024-03-23T08:58:06;10.20;;;2.25;;
34070;SDS011;77342;53.012;6.556;2024-03-23T09:00:33;13.00;;;2.10;;
34070;SDS011;77342;53.012;6.556;2024-03-23T09:03:00;7.45;;;2.45;;
34070;SDS011;77342;53.012;6.556;2024-03-23T09:05:27;12.60;;;2.15;;
34070;SDS011;77342;53.012;6.556;2024-03-23T09:07:55;8.73;;;1.98;;
34070;SDS011;77342;53.012;6.556;2024-03-23T09:10:21;9.98;;;2.42;;
34070;SDS011;77342;53.012;6.556;2024-03-23T09:12:48;10.95;;;2.30;;
34070;SDS011;77342;53.012;6.556;2024-03-23T09:15:13;9.00;;;1.80;;
34070;SDS011;77342;53.012;6.556;2024-03-23T09:17:40;10.35;;;2.20;;
34070;SDS011;77342;53.012;6.556;2024-03-23T09:20:06;11.00;;;2.15;;
34070;SDS011;77342;53.012;6.556;2024-03-23T09:22:34;13.57;;;2.13;;
34070;SDS011;77342;53.012;6.556;2024-03-23T09:24:59;12.52;;;2.20;;
34070;SDS011;77342;53.012;6.556;2024-03-23T09:27:26;9.35;;;1.75;;
34070;SDS011;77342;53.012;6.556;2024-03-23T09:29:51;13.27;;;2.15;;
34070;SDS011;77342;53.012;6.556;2024-03-23T09:32:18;9.30;;;1.90;;
34070;SDS011;77342;53.012;6.556;2024-03-23T09:34:43;9.73;;;1.92;;
34070;SDS011;77342;53.012;6.556;2024-03-23T09:37:10;8.05;;;1.67;;
34070;SDS011;77342;53.012;6.556;2024-03-23T09:39:36;7.47;;;1.93;;
34070;SDS011;77342;53.012;6.556;2024-03-23T09:42:03;9.25;;;1.92;;
34070;SDS011;77342;53.012;6.556;2024-03-23T09:44:31;6.43;;;1.50;;
34070;SDS011;77342;53.012;6.556;2024-03-23T09:46:58;9.23;;;1.80;;
34070;SDS011;77342;53.012;6.556;2024-03-23T09:49:23;8.82;;;1.65;;
34070;SDS011;77342;53.012;6.556;2024-03-23T09:51:50;9.38;;;1.60;;
34070;SDS011;77342;53.012;6.556;2024-03-23T09:54:16;6.63;;;1.90;;
34070;SDS011;77342;53.012;6.556;2024-03-23T09:56:42;8.45;;;1.75;;
34070;SDS011;77342;53.012;6.556;2024-03-23T09:59:08;10.15;;;1.92;;
34070;SDS011;77342;53.012;6.556;2024-03-23T10:01:36;8.65;;;1.83;;
34070;SDS011;77342;53.012;6.556;2024-03-23T10:04:02;10.98;;;1.75;;
34070;SDS011;77342;53.012;6.556;2024-03-23T10:06:30;11.30;;;2.17;;
34070;SDS011;77342;53.012;6.556;2024-03-23T10:08:56;9.50;;;1.85;;
34070;SDS011;77342;53.012;6.556;2024-03-23T10:11:22;8.82;;;1.98;;
34070;SDS011;77342;53.012;6.556;2024-03-23T10:13:48;11.52;;;2.08;;
34070;SDS011;77342;53.012;6.556;2024-03-23T10:16:22;16.17;;;2.75;;
34070;SDS011;77342;53.012;6.556;2024-03-23T10:18:48;8.40;;;2.00;;
34070;SDS011;77342;53.012;6.556;2024-03-23T10:21:16;12.65;;;1.98;;
34070;SDS011;77342;53.012;6.556;2024-03-23T10:23:43;11.03;;;2.10;;
34070;SDS011;77342;53.012;6.556;2024-03-23T10:26:19;10.77;;;2.13;;
34070;SDS011;77342;53.012;6.556;2024-03-23T10:29:01;6.33;;;1.70;;
34070;SDS011;77342;53.012;6.556;2024-03-23T10:31:27;8.03;;;1.57;;
34070;SDS011;77342;53.012;6.556;2024-03-23T10:33:55;7.20;;;1.67;;
34070;SDS011;77342;53.012;6.556;2024-03-23T10:36:21;6.55;;;1.55;;
34070;SDS011;77342;53.012;6.556;2024-03-23T10:38:51;6.60;;;1.65;;
34070;SDS011;77342;53.012;6.556;2024-03-23T10:41:18;8.80;;;2.00;;
34070;SDS011;77342;53.012;6.556;2024-03-23T10:43:46;8.82;;;1.90;;
34070;SDS011;77342;53.012;6.556;2024-03-23T10:46:14;10.23;;;1.80;;
34070;SDS011;77342;53.012;6.556;2024-03-23T10:48:40;7.95;;;1.75;;
34070;SDS011;77342;53.012;6.556;2024-03-23T10:51:08;5.18;;;1.40;;
34070;SDS011;77342;53.012;6.556;2024-03-23T10:53:36;4.35;;;1.17;;
34070;SDS011;77342;53.012;6.556;2024-03-23T10:56:02;5.05;;;1.38;;
34070;SDS011;77342;53.012;6.556;2024-03-23T10:58:38;5.90;;;1.50;;
34070;SDS011;77342;53.012;6.556;2024-03-23T11:01:05;4.40;;;1.23;;
34070;SDS011;77342;53.012;6.556;2024-03-23T11:03:36;5.60;;;1.10;;
34070;SDS011;77342;53.012;6.556;2024-03-23T11:06:06;8.57;;;1.20;;
34070;SDS011;77342;53.012;6.556;2024-03-23T11:08:35;4.03;;;1.00;;
34070;SDS011;77342;53.012;6.556;2024-03-23T11:11:12;3.73;;;1.00;;
34070;SDS011;77342;53.012;6.556;2024-03-23T11:13:42;2.55;;;1.00;;
34070;SDS011;77342;53.012;6.556;2024-03-23T11:16:27;4.47;;;1.10;;
34070;SDS011;77342;53.012;6.556;2024-03-23T11:22:02;4.40;;;1.10;;
34070;SDS011;77342;53.012;6.556;2024-03-23T11:27:00;5.37;;;1.10;;
34070;SDS011;77342;53.012;6.556;2024-03-23T11:29:29;3.75;;;1.05;;
34070;SDS011;77342;53.012;6.556;2024-03-23T11:31:55;5.27;;;1.40;;
34070;SDS011;77342;53.012;6.556;2024-03-23T11:34:23;6.50;;;1.30;;
34070;SDS011;77342;53.012;6.556;2024-03-23T11:36:49;4.50;;;1.10;;
34070;SDS011;77342;53.012;6.556;2024-03-23T11:39:17;4.90;;;1.40;;
34070;SDS011;77342;53.012;6.556;2024-03-23T11:41:49;7.78;;;1.50;;
34070;SDS011;77342;53.012;6.556;2024-03-23T11:44:17;6.47;;;1.30;;
34070;SDS011;77342;53.012;6.556;2024-03-23T11:47:07;6.57;;;1.60;;
34070;SDS011;77342;53.012;6.556;2024-03-23T11:49:35;6.22;;;1.80;;
34070;SDS011;77342;53.012;6.556;2024-03-23T11:52:06;6.85;;;1.92;;
34070;SDS011;77342;53.012;6.556;2024-03-23T11:54:33;7.80;;;1.63;;
34070;SDS011;77342;53.012;6.556;2024-03-23T11:57:00;8.55;;;1.80;;
34070;SDS011;77342;53.012;6.556;2024-03-23T11:59:34;5.80;;;1.38;;
34070;SDS011;77342;53.012;6.556;2024-03-23T12:02:11;5.07;;;1.10;;
34070;SDS011;77342;53.012;6.556;2024-03-23T12:04:40;5.63;;;1.60;;
34070;SDS011;77342;53.012;6.556;2024-03-23T12:07:10;5.80;;;1.37;;
34070;SDS011;77342;53.012;6.556;2024-03-23T12:09:37;2.77;;;1.07;;
34070;SDS011;77342;53.012;6.556;2024-03-23T12:12:10;5.80;;;1.40;;
34070;SDS011;77342;53.012;6.556;2024-03-23T12:14:40;3.87;;;0.93;;
34070;SDS011;77342;53.012;6.556;2024-03-23T12:17:12;2.50;;;1.00;;
34070;SDS011;77342;53.012;6.556;2024-03-23T12:19:40;4.78;;;1.20;;
34070;SDS011;77342;53.012;6.556;2024-03-23T12:22:07;2.20;;;0.85;;
34070;SDS011;77342;53.012;6.556;2024-03-23T12:24:35;4.35;;;0.77;;
34070;SDS011;77342;53.012;6.556;2024-03-23T12:27:04;4.90;;;1.20;;
34070;SDS011;77342;53.012;6.556;2024-03-23T12:29:31;4.32;;;1.00;;
34070;SDS011;77342;53.012;6.556;2024-03-23T12:32:01;3.03;;;0.95;;
34070;SDS011;77342;53.012;6.556;2024-03-23T12:34:28;7.40;;;1.40;;
34070;SDS011;77342;53.012;6.556;2024-03-23T12:36:55;8.88;;;1.80;;
34070;SDS011;77342;53.012;6.556;2024-03-23T12:39:22;6.75;;;2.00;;
34070;SDS011;77342;53.012;6.556;2024-03-23T12:41:48;9.80;;;1.95;;
34070;SDS011;77342;53.012;6.556;2024-03-23T12:44:15;6.80;;;1.67;;
34070;SDS011;77342;53.012;6.556;2024-03-23T12:46:44;9.23;;;1.75;;
34070;SDS011;77342;53.012;6.556;2024-03-23T12:49:11;7.45;;;1.73;;
34070;SDS011;77342;53.012;6.556;2024-03-23T12:51:37;7.72;;;1.70;;
34070;SDS011;77342;53.012;6.556;2024-03-23T12:54:03;7.90;;;1.50;;
34070;SDS011;77342;53.012;6.556;2024-03-23T12:56:30;9.90;;;1.73;;
34070;SDS011;77342;53.012;6.556;2024-03-23T12:58:55;7.80;;;1.67;;
34070;SDS011;77342;53.012;6.556;2024-03-23T13:01:24;9.10;;;1.70;;
34070;SDS011;77342;53.012;6.556;2024-03-23T13:03:49;9.70;;;1.90;;
34070;SDS011;77342;53.012;6.556;2024-03-23T13:06:17;8.10;;;2.07;;
34070;SDS011;77342;53.012;6.556;2024-03-23T13:08:47;8.00;;;1.80;;
34070;SDS011;77342;53.012;6.556;2024-03-23T13:11:16;9.13;;;1.70;;
34070;SDS011;77342;53.012;6.556;2024-03-23T13:13:41;8.83;;;1.67;;
34070;SDS011;77342;53.012;6.556;2024-03-23T13:16:08;7.60;;;1.73;;
34070;SDS011;77342;53.012;6.556;2024-03-23T13:18:33;6.47;;;1.77;;
34070;SDS011;77342;53.012;6.556;2024-03-23T13:21:00;6.97;;;2.00;;
34070;SDS011;77342;53.012;6.556;2024-03-23T13:23:25;9.07;;;1.90;;
34070;SDS011;77342;53.012;6.556;2024-03-23T13:25:52;8.07;;;1.70;;
34070;SDS011;77342;53.012;6.556;2024-03-23T13:28:19;7.28;;;1.73;;
34070;SDS011;77342;53.012;6.556;2024-03-23T13:30:50;9.60;;;2.15;;
34070;SDS011;77342;53.012;6.556;2024-03-23T13:33:19;8.88;;;2.03;;
34070;SDS011;77342;53.012;6.556;2024-03-23T13:35:50;9.48;;;2.10;;
34070;SDS011;77342;53.012;6.556;2024-03-23T13:38:16;15.27;;;2.17;;
34070;SDS011;77342;53.012;6.556;2024-03-23T13:41:15;13.38;;;2.38;;
34070;SDS011;77342;53.012;6.556;2024-03-23T13:43:37;11.52;;;1.92;;
34070;SDS011;77342;53.012;6.556;2024-03-23T13:46:09;10.90;;;2.10;;
34070;SDS011;77342;53.012;6.556;2024-03-23T13:48:35;10.32;;;2.03;;
34070;SDS011;77342;53.012;6.556;2024-03-23T13:51:02;13.68;;;2.30;;
34070;SDS011;77342;53.012;6.556;2024-03-23T13:53:29;9.05;;;2.08;;
34070;SDS011;77342;53.012;6.556;2024-03-23T13:55:57;9.88;;;1.95;;
34070;SDS011;77342;53.012;6.556;2024-03-23T13:58:23;9.25;;;1.52;;
34070;SDS011;77342;53.012;6.556;2024-03-23T14:00:51;9.73;;;2.20;;
34070;SDS011;77342;53.012;6.556;2024-03-23T14:03:17;6.70;;;1.63;;
34070;SDS011;77342;53.012;6.556;2024-03-23T14:05:44;6.05;;;1.50;;
34070;SDS011;77342;53.012;6.556;2024-03-23T14:08:12;6.43;;;1.77;;
34070;SDS011;77342;53.012;6.556;2024-03-23T14:10:41;9.82;;;2.20;;
34070;SDS011;77342;53.012;6.556;2024-03-23T14:13:08;9.88;;;1.90;;
34070;SDS011;77342;53.012;6.556;2024-03-23T14:15:34;13.93;;;2.17;;
34070;SDS011;77342;53.012;6.556;2024-03-23T14:18:01;5.68;;;1.80;;
34070;SDS011;77342;53.012;6.556;2024-03-23T14:20:28;12.43;;;2.72;;
34070;SDS011;77342;53.012;6.556;2024-03-23T14:22:54;10.93;;;1.95;;
34070;SDS011;77342;53.012;6.556;2024-03-23T14:25:21;8.93;;;2.17;;
34070;SDS011;77342;53.012;6.556;2024-03-23T14:27:49;11.23;;;2.00;;
34070;SDS011;77342;53.012;6.556;2024-03-23T14:30:15;8.93;;;1.90;;
34070;SDS011;77342;53.012;6.556;2024-03-23T14:32:41;10.95;;;2.55;;
34070;SDS011;77342;53.012;6.556;2024-03-23T14:35:08;9.52;;;2.38;;
34070;SDS011;77342;53.012;6.556;2024-03-23T14:37:36;14.68;;;2.00;;
34070;SDS011;77342;53.012;6.556;2024-03-23T14:40:03;8.82;;;2.17;;
34070;SDS011;77342;53.012;6.556;2024-03-23T14:42:30;10.82;;;2.28;;
34070;SDS011;77342;53.012;6.556;2024-03-23T14:44:57;10.55;;;2.40;;
34070;SDS011;77342;53.012;6.556;2024-03-23T14:47:23;9.00;;;1.85;;
34070;SDS011;77342;53.012;6.556;2024-03-23T14:49:50;13.10;;;2.88;;
34070;SDS011;77342;53.012;6.556;2024-03-23T14:52:19;11.90;;;2.20;;
34070;SDS011;77342;53.012;6.556;2024-03-23T14:54:46;8.88;;;1.98;;
34070;SDS011;77342;53.012;6.556;2024-03-23T14:57:11;12.48;;;2.55;;
34070;SDS011;77342;53.012;6.556;2024-03-23T14:59:38;13.32;;;2.50;;
34070;SDS011;77342;53.012;6.556;2024-03-23T15:02:05;8.85;;;1.75;;
34070;SDS011;77342;53.012;6.556;2024-03-23T15:04:33;5.32;;;1.48;;
34070;SDS011;77342;53.012;6.556;2024-03-23T15:06:59;8.15;;;1.75;;
34070;SDS011;77342;53.012;6.556;2024-03-23T15:09:26;4.55;;;1.60;;
34070;SDS011;77342;53.012;6.556;2024-03-23T15:11:51;7.55;;;1.70;;
34070;SDS011;77342;53.012;6.556;2024-03-23T15:14:20;9.00;;;1.70;;
34070;SDS011;77342;53.012;6.556;2024-03-23T15:16:45;7.57;;;1.38;;
34070;SDS011;77342;53.012;6.556;2024-03-23T15:19:14;10.50;;;1.70;;
34070;SDS011;77342;53.012;6.556;2024-03-23T15:21:40;9.07;;;1.88;;
34070;SDS011;77342;53.012;6.556;2024-03-23T15:24:07;11.52;;;1.75;;
34070;SDS011;77342;53.012;6.556;2024-03-23T15:26:36;6.65;;;1.60;;
34070;SDS011;77342;53.012;6.556;2024-03-23T15:29:03;13.05;;;2.45;;
34070;SDS011;77342;53.012;6.556;2024-03-23T15:31:35;9.47;;;1.63;;
34070;SDS011;77342;53.012;6.556;2024-03-23T15:34:02;8.17;;;1.93;;
34070;SDS011;77342;53.012;6.556;2024-03-23T15:36:28;5.63;;;1.20;;
34070;SDS011;77342;53.012;6.556;2024-03-23T15:38:55;8.50;;;1.67;;
34070;SDS011;77342;53.012;6.556;2024-03-23T15:41:20;5.10;;;1.47;;